Time;durP1;ratioP1;P1;durP2;ratioP2;P2;SDS_P1;SDS_P2;PMS_P1;PMS_P2;Temp;Humidity;BMP_temperature;BMP_pressure;BME280_temperature;BME280_humidity;BME280_pressure;Samples;Min_cycle;Max_cycle;Signal;HPM_P1;HPM_P2
2023/10/18 00:01:04;;;;;;;6.50;5.90;;;7.90;99.90;;;;;;4968007;28;20802;-64
2023/10/18 00:03:32;;;;;;;8.70;6.23;;;7.80;99.90;;;;;;4970665;28;20924;-63
2023/10/18 00:05:59;;;;;;;9.73;6.73;;;7.80;99.90;;;;;;4969687;28;20942;-64
2023/10/18 00:08:26;;;;;;;7.63;6.83;;;7.70;99.90;;;;;;4970239;28;20431;-64
2023/10/18 00:10:53;;;;;;;7.60;6.80;;;7.80;99.90;;;;;;4970298;28;20455;-64
2023/10/18 00:13:22;;;;;;;8.13;7.27;;;7.70;99.90;;;;;;4972092;28;20933;-63
2023/10/18 00:15:59;;;;;;;7.90;6.67;;;7.70;99.90;;;;;;4968401;28;20435;-64
2023/10/18 00:18:25;;;;;;;8.57;7.50;;;7.80;99.90;;;;;;4969434;28;20471;-64
2023/10/18 00:20:59;;;;;;;6.93;6.23;;;7.80;99.90;;;;;;4969518;28;21176;-64
2023/10/18 00:23:26;;;;;;;7.13;6.30;;;7.80;99.90;;;;;;4971161;28;20206;-65
2023/10/18 00:25:51;;;;;;;6.93;6.33;;;7.80;99.90;;;;;;4968594;28;20428;-64
2023/10/18 00:28:19;;;;;;;7.63;6.50;;;7.80;99.90;;;;;;4970185;28;20825;-64
2023/10/18 00:30:45;;;;;;;10.03;7.40;;;7.80;99.90;;;;;;4969342;28;20299;-64
2023/10/18 00:33:11;;;;;;;10.93;7.40;;;7.80;99.90;;;;;;4971141;28;21057;-64
2023/10/18 00:35:39;;;;;;;7.37;6.67;;;7.80;99.90;;;;;;4968331;28;20436;-64
2023/10/18 00:38:11;;;;;;;8.13;7.33;;;7.70;99.90;;;;;;4969683;28;20216;-64
2023/10/18 00:40:39;;;;;;;8.73;7.83;;;7.70;99.90;;;;;;4966382;28;20447;-66
2023/10/18 00:43:27;;;;;;;9.37;8.40;;;7.60;99.90;;;;;;4970252;28;20454;-64
2023/10/18 00:45:54;;;;;;;9.07;7.70;;;7.60;99.90;;;;;;4979117;28;20434;-65
2023/10/18 00:48:27;;;;;;;8.53;7.63;;;7.50;99.90;;;;;;4977338;28;20841;-63
2023/10/18 00:50:57;;;;;;;8.93;8.13;;;7.50;99.90;;;;;;4968880;28;20924;-64
2023/10/18 00:53:24;;;;;;;9.67;8.77;;;7.40;99.90;;;;;;4969046;28;20431;-64
2023/10/18 00:55:59;;;;;;;10.10;7.27;;;7.50;99.90;;;;;;4968126;28;20443;-64
2023/10/18 00:58:31;;;;;;;9.07;7.83;;;7.50;99.90;;;;;;4969483;28;20832;-64
2023/10/18 01:00:59;;;;;;;8.67;7.70;;;7.40;99.90;;;;;;4967015;28;20443;-64
2023/10/18 01:03:32;;;;;;;8.80;7.87;;;7.40;99.90;;;;;;4968815;28;20515;-64
2023/10/18 01:06:08;;;;;;;9.27;8.37;;;7.40;99.90;;;;;;4967780;28;20432;-64
2023/10/18 01:08:37;;;;;;;9.90;7.57;;;7.40;99.90;;;;;;4967757;28;20439;-64
2023/10/18 01:11:12;;;;;;;11.33;8.00;;;7.50;99.90;;;;;;4971316;28;21137;-65
2023/10/18 01:13:42;;;;;;;9.97;8.70;;;7.60;99.90;;;;;;4967830;28;20428;-64
2023/10/18 01:18:58;;;;;;;8.60;7.70;;;7.50;99.90;;;;;;4968508;28;21410;-64
2023/10/18 01:21:24;;;;;;;7.90;7.20;;;7.40;99.90;;;;;;4970385;28;20484;-64
2023/10/18 01:23:54;;;;;;;9.13;8.23;;;7.30;99.90;;;;;;4973706;28;20443;-64
2023/10/18 01:26:24;;;;;;;8.83;7.87;;;7.30;99.90;;;;;;4970288;28;20184;-65
2023/10/18 01:28:54;;;;;;;8.50;7.37;;;7.30;99.90;;;;;;4975200;28;20499;-64
2023/10/18 01:31:20;;;;;;;10.70;7.70;;;7.30;99.90;;;;;;4970710;28;20934;-64
2023/10/18 01:33:47;;;;;;;7.90;7.20;;;7.20;99.90;;;;;;4968108;28;20432;-65
2023/10/18 01:36:14;;;;;;;8.83;7.90;;;7.20;99.90;;;;;;4969749;28;20523;-65
2023/10/18 01:38:46;;;;;;;8.23;7.43;;;7.20;99.90;;;;;;4974114;28;20479;-64
2023/10/18 01:41:16;;;;;;;7.97;7.27;;;7.20;99.90;;;;;;4969818;28;20522;-65
2023/10/18 01:43:44;;;;;;;8.67;7.40;;;7.20;99.90;;;;;;4971962;28;20502;-64
2023/10/18 01:46:13;;;;;;;8.63;7.73;;;7.20;99.90;;;;;;4974538;28;20443;-64
2023/10/18 01:48:39;;;;;;;7.47;6.70;;;7.20;99.90;;;;;;4976894;28;21272;-65
2023/10/18 01:51:06;;;;;;;8.80;7.40;;;7.20;99.90;;;;;;4970568;28;20490;-65
2023/10/18 01:53:36;;;;;;;9.77;8.77;;;7.20;99.90;;;;;;4968329;28;20482;-64
2023/10/18 01:56:02;;;;;;;9.20;8.17;;;7.10;99.90;;;;;;4972732;28;20521;-64
2023/10/18 01:58:29;;;;;;;8.47;7.57;;;7.20;99.90;;;;;;4967840;28;20532;-64
2023/10/18 02:00:56;;;;;;;8.50;7.70;;;7.20;99.90;;;;;;4968133;28;20273;-64
2023/10/18 02:03:23;;;;;;;7.67;6.87;;;7.20;99.90;;;;;;4969411;28;20470;-64
2023/10/18 02:05:49;;;;;;;7.40;6.70;;;7.20;99.90;;;;;;4971735;28;20604;-64
2023/10/18 02:08:18;;;;;;;9.80;7.60;;;7.20;99.90;;;;;;4970881;28;20440;-65
2023/10/18 02:10:45;;;;;;;10.07;8.23;;;7.10;99.90;;;;;;4975197;28;20770;-65
2023/10/18 02:13:13;;;;;;;7.83;7.13;;;7.00;99.90;;;;;;4973830;28;20486;-65
2023/10/18 02:15:40;;;;;;;8.43;7.60;;;7.00;99.90;;;;;;4967146;28;20440;-65
2023/10/18 02:18:10;;;;;;;7.47;6.77;;;6.90;99.90;;;;;;4976394;28;20643;-64
2023/10/18 02:20:37;;;;;;;7.60;6.80;;;6.90;99.90;;;;;;4973649;28;20519;-64
2023/10/18 02:23:06;;;;;;;6.60;5.93;;;6.70;99.90;;;;;;4966925;28;20572;-64
2023/10/18 02:28:28;;;;;;;9.70;7.87;;;6.80;99.90;;;;;;4967662;28;20427;-64
2023/10/18 02:30:58;;;;;;;8.63;7.30;;;6.80;99.90;;;;;;4981171;28;21004;-64
2023/10/18 02:33:24;;;;;;;7.67;6.57;;;6.80;99.90;;;;;;4969267;28;20852;-64
2023/10/18 02:35:50;;;;;;;8.33;7.53;;;6.80;99.90;;;;;;4966444;28;20801;-64
2023/10/18 02:38:18;;;;;;;7.60;6.90;;;6.70;99.90;;;;;;4968579;28;20479;-64
2023/10/18 02:40:44;;;;;;;7.80;6.77;;;6.70;99.90;;;;;;4967010;28;20185;-64
2023/10/18 02:43:14;;;;;;;7.43;6.73;;;6.80;99.90;;;;;;4966998;28;20440;-64
2023/10/18 02:45:42;;;;;;;8.00;6.33;;;6.70;99.90;;;;;;4975777;28;20195;-65
2023/10/18 02:48:13;;;;;;;6.93;6.33;;;6.70;99.90;;;;;;4967475;28;20447;-64
2023/10/18 02:50:40;;;;;;;6.90;6.20;;;6.80;99.90;;;;;;4967187;28;20435;-64
2023/10/18 02:53:06;;;;;;;6.33;5.73;;;6.80;99.90;;;;;;4967272;28;20958;-65
2023/10/18 02:55:38;;;;;;;7.77;6.73;;;6.90;99.90;;;;;;4967414;28;20490;-65
2023/10/18 02:58:06;;;;;;;6.37;5.77;;;6.90;99.90;;;;;;4965649;28;21264;-64
2023/10/18 03:00:34;;;;;;;8.00;6.23;;;6.90;99.90;;;;;;4967721;28;21394;-64
2023/10/18 03:03:01;;;;;;;8.70;5.90;;;6.90;99.90;;;;;;4965344;28;20434;-64
2023/10/18 03:05:28;;;;;;;5.70;5.20;;;7.00;99.90;;;;;;4967926;28;20441;-64
2023/10/18 03:07:54;;;;;;;7.73;6.93;;;6.90;99.90;;;;;;4966398;28;20432;-64
2023/10/18 03:10:27;;;;;;;6.17;5.57;;;6.90;99.90;;;;;;4970980;28;20438;-64
2023/10/18 03:12:53;;;;;;;6.57;5.53;;;6.90;99.90;;;;;;4966492;28;20252;-64
2023/10/18 03:15:21;;;;;;;6.47;5.87;;;6.90;99.90;;;;;;4967657;28;20441;-64
2023/10/18 03:17:49;;;;;;;7.53;5.60;;;6.90;99.90;;;;;;4964307;28;20243;-65
2023/10/18 03:20:26;;;;;;;6.77;6.07;;;6.90;99.90;;;;;;4967968;28;20440;-64
2023/10/18 03:22:52;;;;;;;5.90;5.40;;;7.00;99.90;;;;;;4966059;28;21177;-65
2023/10/18 03:25:26;;;;;;;5.80;5.17;;;6.90;99.90;;;;;;4967683;28;20534;-64
2023/10/18 03:27:57;;;;;;;6.80;5.27;;;7.00;99.90;;;;;;4966195;28;20669;-64
2023/10/18 03:30:39;;;;;;;8.60;6.30;;;7.10;99.90;;;;;;4974633;28;20431;-64
2023/10/18 03:33:07;;;;;;;6.83;5.70;;;7.00;99.90;;;;;;4981765;28;20428;-64
2023/10/18 03:35:37;;;;;;;7.13;5.93;;;7.00;99.90;;;;;;4965998;28;20446;-64
2023/10/18 03:38:05;;;;;;;6.23;5.33;;;7.00;99.90;;;;;;4967097;28;20554;-64
2023/10/18 03:40:36;;;;;;;6.13;5.33;;;7.00;99.90;;;;;;4967390;28;20434;-64
2023/10/18 03:43:09;;;;;;;9.67;5.30;;;7.00;99.90;;;;;;4966497;28;20456;-64
2023/10/18 03:48:28;;;;;;;5.93;5.10;;;6.90;99.90;;;;;;4967555;28;20438;-64
2023/10/18 03:50:55;;;;;;;6.60;5.93;;;7.00;99.90;;;;;;4965794;28;20443;-64
2023/10/18 03:53:21;;;;;;;5.93;5.33;;;7.10;99.90;;;;;;4967227;28;21208;-64
2023/10/18 03:55:49;;;;;;;5.70;5.20;;;7.10;99.90;;;;;;4965479;28;20436;-64
2023/10/18 03:58:22;;;;;;;6.90;6.10;;;7.00;99.90;;;;;;4967308;28;20566;-64
2023/10/18 04:00:54;;;;;;;5.80;4.97;;;7.00;99.90;;;;;;4963957;28;20424;-64
2023/10/18 04:03:20;;;;;;;8.00;6.20;;;7.00;99.90;;;;;;4967284;28;20443;-64
2023/10/18 04:05:49;;;;;;;8.20;5.20;;;6.80;99.90;;;;;;4964802;28;20450;-64
2023/10/18 04:08:17;;;;;;;5.57;5.07;;;6.80;99.90;;;;;;4967439;28;20450;-64
2023/10/18 04:10:44;;;;;;;5.60;5.10;;;6.70;99.90;;;;;;4973420;28;20436;-64
2023/10/18 04:13:11;;;;;;;8.90;6.17;;;6.70;99.90;;;;;;4981983;28;20446;-64
2023/10/18 04:15:39;;;;;;;7.13;5.90;;;6.60;99.90;;;;;;4964886;28;20431;-65
2023/10/18 04:20:34;;;;;;;8.67;6.50;;;6.50;99.90;;;;;;4965760;28;20478;-64
2023/10/18 04:23:12;;;;;;;7.40;6.57;;;6.60;99.90;;;;;;4965745;28;20451;-64
2023/10/18 04:25:38;;;;;;;9.53;7.17;;;6.60;99.90;;;;;;4974997;28;20428;-65
2023/10/18 04:28:04;;;;;;;6.73;5.90;;;6.60;99.90;;;;;;4976859;28;20434;-64
2023/10/18 04:30:31;;;;;;;7.20;6.10;;;6.60;99.90;;;;;;4975139;28;20441;-64
2023/10/18 04:33:00;;;;;;;6.97;6.27;;;6.70;99.90;;;;;;4965417;28;20428;-64
2023/10/18 04:35:30;;;;;;;7.20;6.50;;;6.70;99.90;;;;;;4962987;28;20431;-64
2023/10/18 04:37:56;;;;;;;10.07;6.70;;;6.70;99.90;;;;;;4965927;28;20436;-64
2023/10/18 04:40:22;;;;;;;9.67;7.00;;;6.70;99.90;;;;;;4967036;28;20446;-64
2023/10/18 04:42:55;;;;;;;8.60;6.47;;;6.80;99.90;;;;;;4965289;28;20432;-65
2023/10/18 04:45:23;;;;;;;9.37;6.83;;;6.70;99.90;;;;;;4966389;28;21039;-64
2023/10/18 04:48:06;;;;;;;7.77;6.70;;;6.60;99.90;;;;;;4966906;28;20439;-65
2023/10/18 04:50:38;;;;;;;7.23;6.40;;;6.60;99.90;;;;;;4968014;28;20773;-64
2023/10/18 04:53:12;;;;;;;9.13;6.63;;;6.60;99.90;;;;;;4974011;28;20435;-64
2023/10/18 04:55:46;;;;;;;7.23;6.53;;;6.60;99.90;;;;;;4963535;28;20424;-64
2023/10/18 04:58:15;;;;;;;10.50;6.63;;;6.50;99.90;;;;;;4978064;28;20891;-64
2023/10/18 05:00:57;;;;;;;8.87;6.27;;;6.60;99.90;;;;;;4969560;28;20435;-65
2023/10/18 05:03:30;;;;;;;7.40;6.43;;;6.70;99.90;;;;;;4968176;28;20444;-64
2023/10/18 05:05:57;;;;;;;7.70;6.37;;;6.60;99.90;;;;;;4970922;28;20509;-64
2023/10/18 05:08:23;;;;;;;7.27;6.57;;;6.60;99.90;;;;;;4976123;28;20448;-63
2023/10/18 05:10:52;;;;;;;6.70;6.00;;;6.60;99.90;;;;;;4970590;28;20834;-64
2023/10/18 05:13:32;;;;;;;7.30;6.60;;;6.60;99.90;;;;;;4968266;28;20459;-64
2023/10/18 05:16:03;;;;;;;7.33;6.63;;;6.60;99.90;;;;;;4967855;28;20436;-64
2023/10/18 05:18:30;;;;;;;7.73;6.60;;;6.70;99.90;;;;;;4967680;28;20478;-64
2023/10/18 05:20:57;;;;;;;7.03;6.30;;;6.70;99.90;;;;;;4968296;28;20435;-64
2023/10/18 05:23:36;;;;;;;8.10;6.77;;;6.70;99.90;;;;;;4970869;28;20561;-64
2023/10/18 05:26:08;;;;;;;7.57;6.10;;;6.70;99.90;;;;;;4968014;28;20435;-64
2023/10/18 05:28:52;;;;;;;8.20;6.80;;;6.60;99.90;;;;;;4970340;28;20427;-64
2023/10/18 05:37:50;;;;;;;6.00;5.40;;;6.70;99.90;;;;;;4937966;29;20536;-64
2023/10/18 05:43:35;;;;;;;7.43;5.77;;;6.50;99.90;;;;;;4969800;28;20439;-64
2023/10/18 05:46:07;;;;;;;7.83;6.13;;;6.50;99.90;;;;;;4970981;28;20435;-64
2023/10/18 05:48:40;;;;;;;8.20;6.10;;;6.40;99.90;;;;;;4968197;28;20575;-64
2023/10/18 05:51:38;;;;;;;6.73;5.50;;;6.40;99.90;;;;;;4968080;28;20517;-64
2023/10/18 05:54:39;;;;;;;8.80;5.80;;;6.40;99.90;;;;;;4967778;28;20468;-64
2023/10/18 05:57:08;;;;;;;6.13;5.47;;;6.40;99.90;;;;;;4946561;28;20549;-64
2023/10/18 05:59:41;;;;;;;10.70;6.47;;;6.40;99.90;;;;;;4969409;28;20486;-64
2023/10/18 06:02:10;;;;;;;6.87;5.77;;;6.50;99.90;;;;;;4961179;28;20448;-64
2023/10/18 06:04:45;;;;;;;10.00;5.80;;;6.40;99.90;;;;;;4968032;28;20455;-64
2023/10/18 06:07:23;;;;;;;8.87;6.20;;;6.40;99.90;;;;;;4971952;28;20837;-64
2023/10/18 06:13:21;;;;;;;6.97;6.33;;;6.40;99.90;;;;;;4967937;28;20432;-64
2023/10/18 06:15:51;;;;;;;7.23;5.60;;;6.30;99.90;;;;;;4953641;28;20439;-64
2023/10/18 06:21:19;;;;;;;5.50;5.00;;;6.40;99.90;;;;;;4967838;28;20436;-64
2023/10/18 06:24:26;;;;;;;7.90;6.10;;;6.40;99.90;;;;;;4961609;28;20444;-64
2023/10/18 06:27:00;;;;;;;7.23;6.53;;;6.60;99.90;;;;;;4953868;28;20497;-64
2023/10/18 06:29:41;;;;;;;7.50;5.80;;;6.50;99.90;;;;;;4957874;28;20493;-63
2023/10/18 06:32:09;;;;;;;6.27;5.60;;;6.60;99.90;;;;;;4978373;28;20461;-64
2023/10/18 06:34:44;;;;;;;8.53;5.70;;;6.60;99.90;;;;;;4972197;28;20439;-64
2023/10/18 06:37:20;;;;;;;6.60;5.87;;;6.60;99.90;;;;;;4973029;28;20461;-64
2023/10/18 06:39:47;;;;;;;6.83;5.43;;;6.60;99.90;;;;;;4964198;28;20483;-64
2023/10/18 06:42:13;;;;;;;6.30;5.70;;;6.70;99.90;;;;;;4967872;28;20432;-64
2023/10/18 06:44:43;;;;;;;6.53;5.50;;;6.70;99.90;;;;;;4965986;28;20490;-64
2023/10/18 06:50:25;;;;;;;6.40;5.77;;;6.70;99.90;;;;;;4967689;28;20516;-64
2023/10/18 06:52:54;;;;;;;5.60;5.10;;;6.70;99.90;;;;;;4974520;28;20546;-64
2023/10/18 06:55:41;;;;;;;8.80;6.70;;;6.80;99.90;;;;;;4971254;28;20454;-64
2023/10/18 07:01:30;;;;;;;8.50;5.60;;;6.90;99.90;;;;;;4970639;28;20424;-64
2023/10/18 07:03:56;;;;;;;7.80;6.60;;;6.90;99.90;;;;;;4968427;28;20456;-64
2023/10/18 07:06:35;;;;;;;7.53;6.57;;;6.90;99.90;;;;;;4966263;28;20443;-64
2023/10/18 07:09:24;;;;;;;7.53;6.40;;;6.90;99.90;;;;;;4979607;28;20478;-64
2023/10/18 07:12:03;;;;;;;6.53;5.10;;;7.00;99.90;;;;;;4967592;28;20800;-65
2023/10/18 07:14:55;;;;;;;6.53;5.87;;;6.90;99.90;;;;;;4965140;28;20837;-65
2023/10/18 07:17:39;;;;;;;7.10;5.20;;;7.00;99.90;;;;;;4967806;28;20422;-65
2023/10/18 07:20:15;;;;;;;10.03;6.10;;;7.10;99.90;;;;;;4971418;28;20505;-65
2023/10/18 07:22:56;;;;;;;9.30;6.17;;;7.10;99.90;;;;;;4971404;28;20446;-64
2023/10/18 07:25:26;;;;;;;5.87;5.00;;;7.20;99.90;;;;;;4968697;28;20438;-64
2023/10/18 07:27:55;;;;;;;7.80;6.00;;;7.30;99.90;;;;;;4968850;28;20552;-64
2023/10/18 07:30:37;;;;;;;6.77;5.50;;;7.30;99.90;;;;;;4983258;28;20529;-64
2023/10/18 07:33:17;;;;;;;8.30;6.37;;;7.30;99.90;;;;;;4965154;28;20523;-64
2023/10/18 07:36:00;;;;;;;7.40;6.10;;;7.40;99.90;;;;;;4970785;28;20988;-64
2023/10/18 07:38:26;;;;;;;6.90;5.80;;;7.50;99.90;;;;;;4966092;28;21177;-64
2023/10/18 07:40:59;;;;;;;6.80;5.60;;;7.50;99.90;;;;;;4965409;28;20428;-64
2023/10/18 07:43:28;;;;;;;6.20;5.60;;;7.60;99.90;;;;;;4967237;28;20211;-64
2023/10/18 07:46:30;;;;;;;5.60;5.10;;;7.60;99.90;;;;;;4964580;28;20440;-64
2023/10/18 07:49:04;;;;;;;10.17;6.80;;;7.70;99.90;;;;;;4975946;28;20431;-64
2023/10/18 07:51:31;;;;;;;7.57;5.80;;;7.80;99.90;;;;;;4971742;28;20450;-64
2023/10/18 07:54:26;;;;;;;7.30;5.70;;;7.90;99.90;;;;;;4965199;28;20439;-64
2023/10/18 07:57:34;;;;;;;7.73;5.90;;;8.00;99.90;;;;;;4964942;28;20428;-64
2023/10/18 08:00:21;;;;;;;5.70;5.20;;;8.20;99.90;;;;;;4916209;29;20937;-64
2023/10/18 08:03:17;;;;;;;8.73;6.67;;;8.30;99.90;;;;;;4967747;28;20486;-64
2023/10/18 08:05:50;;;;;;;6.83;6.13;;;8.40;99.90;;;;;;4958104;28;20466;-64
2023/10/18 08:08:18;;;;;;;7.23;6.03;;;8.60;99.90;;;;;;4966963;28;20440;-64
2023/10/18 08:11:11;;;;;;;9.03;5.90;;;8.70;99.90;;;;;;4967972;28;20428;-65
2023/10/18 08:13:46;;;;;;;7.20;5.87;;;8.80;99.90;;;;;;4970656;28;20431;-64
2023/10/18 08:16:43;;;;;;;6.93;6.00;;;8.90;99.90;;;;;;4967051;28;20514;-65
2023/10/18 08:22:39;;;;;;;8.37;6.77;;;9.00;99.90;;;;;;4952914;28;21334;-64
2023/10/18 08:25:31;;;;;;;10.80;6.90;;;9.10;99.90;;;;;;4967996;28;20486;-64
2023/10/18 08:28:01;;;;;;;8.63;6.50;;;9.10;99.90;;;;;;4968964;28;21269;-64
2023/10/18 08:37:16;;;;;;;14.67;8.20;;;9.10;99.90;;;;;;4941372;29;20588;-64
2023/10/18 08:39:55;;;;;;;11.77;6.60;;;9.10;99.90;;;;;;4942742;29;20896;-64
2023/10/18 08:44:05;;;;;;;11.63;5.77;;;9.20;99.90;;;;;;4940907;29;20448;-64
2023/10/18 08:46:05;;;;;;;8.20;6.30;;;9.20;99.90;;;;;;4899410;29;20537;-64
2023/10/18 08:48:45;;;;;;;9.70;6.77;;;9.20;99.90;;;;;;4892220;29;20439;-64
2023/10/18 08:51:26;;;;;;;9.67;6.90;;;9.30;99.90;;;;;;4870393;29;20470;-64
2023/10/18 09:03:07;;;;;;;9.00;7.50;;;10.00;99.90;;;;;;4868219;29;20555;-64
2023/10/18 09:05:40;;;;;;;8.63;6.20;;;10.30;99.90;;;;;;4895673;29;21024;-64
2023/10/18 09:08:19;;;;;;;10.30;6.90;;;10.60;99.90;;;;;;4897697;29;20434;-64
2023/10/18 09:14:08;;;;;;;8.67;6.70;;;11.10;99.90;;;;;;4898687;29;20452;-64
2023/10/18 09:16:40;;;;;;;9.33;7.23;;;11.40;99.90;;;;;;4902967;29;20438;-64
2023/10/18 09:22:29;;;;;;;10.03;6.80;;;11.70;99.90;;;;;;4935068;28;20447;-64
2023/10/18 09:26:01;;;;;;;6.40;5.80;;;12.00;99.90;;;;;;4970492;28;21022;-64
2023/10/18 09:28:43;;;;;;;7.23;6.53;;;12.20;99.90;;;;;;4966997;28;21083;-64
2023/10/18 09:31:18;;;;;;;7.53;5.57;;;12.50;99.90;;;;;;4967411;28;20458;-64
2023/10/18 09:33:51;;;;;;;6.70;6.00;;;12.70;99.90;;;;;;4972485;28;20436;-64
2023/10/18 09:36:29;;;;;;;6.87;5.60;;;12.90;99.90;;;;;;4978289;28;20501;-64
2023/10/18 09:38:58;;;;;;;8.73;5.40;;;13.10;99.90;;;;;;4965633;28;20472;-64
2023/10/18 09:41:29;;;;;;;7.57;6.60;;;13.10;99.90;;;;;;4970168;28;20446;-64
2023/10/18 09:44:41;;;;;;;7.80;6.60;;;13.10;99.90;;;;;;4972138;28;20447;-63
2023/10/18 09:47:49;;;;;;;7.40;6.60;;;13.00;99.90;;;;;;4971199;28;20442;-63
2023/10/18 09:50:28;;;;;;;7.10;6.40;;;12.90;99.90;;;;;;4975688;28;21063;-63
2023/10/18 09:52:57;;;;;;;6.93;6.23;;;12.90;99.90;;;;;;4970693;28;20550;-63
2023/10/18 09:55:27;;;;;;;6.20;5.60;;;12.90;99.90;;;;;;4965919;28;20441;-63
2023/10/18 09:58:42;;;;;;;8.67;7.00;;;12.90;99.90;;;;;;4966852;28;20474;-63
2023/10/18 10:01:27;;;;;;;8.33;6.00;;;13.10;99.90;;;;;;4917774;29;20513;-64
2023/10/18 10:04:04;;;;;;;9.57;7.13;;;13.30;99.90;;;;;;4971126;28;20877;-64
2023/10/18 10:06:30;;;;;;;6.13;5.53;;;13.20;99.90;;;;;;4977930;28;20501;-63
2023/10/18 10:09:14;;;;;;;9.13;5.87;;;13.20;99.90;;;;;;4966918;28;20495;-64
2023/10/18 10:11:56;;;;;;;6.70;6.10;;;13.10;99.90;;;;;;4968577;28;21773;-64
2023/10/18 10:14:32;;;;;;;8.37;5.73;;;13.00;99.90;;;;;;4965991;28;20525;-64
2023/10/18 10:17:36;;;;;;;7.47;6.30;;;13.00;99.90;;;;;;4966553;28;20492;-64
2023/10/18 10:23:25;;;;;;;9.47;5.80;;;12.90;99.90;;;;;;4921294;29;20820;-64
2023/10/18 10:26:27;;;;;;;7.60;5.50;;;13.00;99.90;;;;;;4916249;29;20602;-64
2023/10/18 10:32:28;;;;;;;5.23;4.70;;;12.90;99.90;;;;;;4920406;29;20552;-64
2023/10/18 10:39:12;;;;;;;4.93;4.43;;;13.00;99.90;;;;;;4910146;29;20582;-64
2023/10/18 10:41:40;;;;;;;9.30;4.97;;;13.00;99.90;;;;;;4803541;29;20624;-64
2023/10/18 10:53:57;;;;;;;6.10;5.00;;;13.40;99.90;;;;;;4948869;28;20437;-64
2023/10/18 10:56:30;;;;;;;6.20;4.63;;;13.40;99.90;;;;;;4966828;28;20428;-64
2023/10/18 10:59:24;;;;;;;6.33;4.97;;;13.50;99.90;;;;;;4965227;28;20994;-64
2023/10/18 11:04:46;;;;;;;6.43;4.10;;;13.60;99.90;;;;;;4967368;28;20960;-65
2023/10/18 11:08:05;;;;;;;5.70;4.70;;;13.70;99.90;;;;;;4966994;28;21012;-64
2023/10/18 11:10:44;;;;;;;6.30;5.03;;;13.90;99.90;;;;;;4957393;28;20949;-64
2023/10/18 11:13:13;;;;;;;6.37;5.77;;;14.00;99.90;;;;;;4968623;28;20462;-64
2023/10/18 11:15:54;;;;;;;6.43;5.83;;;14.10;99.90;;;;;;4963669;28;20436;-64
2023/10/18 11:18:48;;;;;;;6.57;5.30;;;14.20;99.90;;;;;;4966796;28;20431;-64
2023/10/18 11:21:29;;;;;;;6.30;5.70;;;14.30;99.90;;;;;;4964711;28;20439;-64
2023/10/18 11:26:50;;;;;;;5.80;4.97;;;14.50;99.90;;;;;;4962758;28;20435;-64
2023/10/18 11:29:27;;;;;;;7.67;5.50;;;14.60;99.90;;;;;;4977478;28;21185;-64
2023/10/18 11:31:58;;;;;;;6.87;4.93;;;14.80;99.90;;;;;;4962871;28;20438;-64
2023/10/18 11:34:33;;;;;;;6.60;5.10;;;14.80;99.90;;;;;;4966391;28;20439;-64
2023/10/18 11:37:34;;;;;;;5.67;4.40;;;14.90;99.90;;;;;;4964589;28;20444;-64
2023/10/18 11:40:43;;;;;;;6.60;4.90;;;15.00;99.90;;;;;;4964092;28;20952;-64
2023/10/18 11:43:39;;;;;;;7.93;5.00;;;15.10;99.90;;;;;;4957570;28;20448;-66
2023/10/18 11:46:14;;;;;;;4.50;4.10;;;15.20;99.90;;;;;;4966955;28;20435;-64
2023/10/18 11:48:41;;;;;;;5.97;5.03;;;15.30;99.90;;;;;;4970143;28;20983;-63
2023/10/18 11:51:27;;;;;;;4.93;4.53;;;15.40;99.90;;;;;;4971727;28;20954;-64
2023/10/18 12:00:59;;;;;;;6.90;5.30;;;15.70;99.90;;;;;;4970152;28;20810;-64
2023/10/18 12:03:43;;;;;;;5.50;5.00;;;15.60;99.90;;;;;;4961678;28;20462;-64
2023/10/18 12:06:22;;;;;;;5.50;4.97;;;15.60;99.90;;;;;;4961590;28;20436;-64
2023/10/18 12:09:07;;;;;;;7.20;6.10;;;15.50;99.90;;;;;;4956974;28;20431;-64
2023/10/18 12:11:42;;;;;;;7.10;4.73;;;15.40;99.90;;;;;;4962493;28;20441;-64
2023/10/18 12:14:18;;;;;;;6.00;5.33;;;15.40;99.90;;;;;;4968685;28;20437;-63
2023/10/18 12:16:45;;;;;;;9.00;6.03;;;15.40;99.90;;;;;;4970139;28;20436;-63
2023/10/18 12:19:51;;;;;;;7.37;5.80;;;15.40;99.90;;;;;;4970929;28;20555;-64
2023/10/18 12:22:36;;;;;;;5.80;5.20;;;15.40;99.90;;;;;;4969301;28;20527;-64
2023/10/18 12:25:06;;;;;;;7.10;4.93;;;15.40;99.90;;;;;;4966933;28;20428;-64
2023/10/18 12:27:35;;;;;;;8.63;4.70;;;15.40;99.90;;;;;;4968497;28;21130;-65
2023/10/18 12:33:27;;;;;;;5.90;4.60;;;15.50;99.90;;;;;;4967614;28;20824;-64
2023/10/18 12:36:00;;;;;;;4.83;3.23;;;15.60;99.90;;;;;;4917884;29;20517;-64
2023/10/18 12:44:11;;;;;;;2.83;2.43;;;15.70;98.10;;;;;;4922608;29;20453;-64
2023/10/18 12:50:03;;;;;;;2.90;2.10;;;15.70;96.30;;;;;;4870156;29;20445;-63
2023/10/18 12:59:40;;;;;;;1.90;1.80;;;15.60;94.40;;;;;;4861672;29;20559;-64
2023/10/18 13:02:10;;;;;;;5.90;2.47;;;15.50;95.00;;;;;;4854910;29;20452;-63
2023/10/18 13:05:07;;;;;;;3.00;2.30;;;15.50;94.80;;;;;;4892551;29;21117;-64
2023/10/18 13:07:43;;;;;;;5.50;2.23;;;15.50;95.40;;;;;;4958058;28;20805;-64
2023/10/18 13:10:13;;;;;;;2.00;1.80;;;15.60;96.10;;;;;;4970501;28;20430;-64
2023/10/18 13:12:53;;;;;;;2.50;2.30;;;15.70;95.50;;;;;;4967101;28;20479;-64
2023/10/18 13:16:13;;;;;;;5.13;2.87;;;15.70;95.40;;;;;;4967542;28;20450;-63
2023/10/18 13:18:47;;;;;;;3.73;2.40;;;15.80;95.90;;;;;;4969093;28;20541;-64
2023/10/18 13:21:33;;;;;;;2.00;1.87;;;16.00;96.00;;;;;;4968121;28;20841;-63
2023/10/18 13:24:29;;;;;;;2.20;1.87;;;16.00;95.50;;;;;;4971209;28;20856;-63
2023/10/18 13:27:08;;;;;;;2.90;2.20;;;16.00;95.70;;;;;;4964269;28;20432;-64
2023/10/18 13:30:00;;;;;;;3.00;2.10;;;16.00;95.00;;;;;;4977393;28;20438;-64
2023/10/18 13:32:33;;;;;;;2.87;2.00;;;16.00;95.40;;;;;;4967566;28;20904;-64
2023/10/18 13:38:15;;;;;;;2.20;1.97;;;15.70;95.80;;;;;;4938430;29;20468;-62
2023/10/18 13:40:46;;;;;;;2.53;1.90;;;15.60;96.70;;;;;;4962030;28;20502;-63
2023/10/18 13:43:39;;;;;;;2.03;1.90;;;15.60;97.40;;;;;;4967828;28;20478;-63
2023/10/18 13:46:16;;;;;;;5.30;2.50;;;15.50;96.30;;;;;;4971240;28;20443;-64
2023/10/18 13:51:53;;;;;;;4.17;2.20;;;15.40;96.00;;;;;;4935727;29;20954;-64
2023/10/18 13:54:28;;;;;;;2.20;1.90;;;15.40;96.10;;;;;;4940620;29;20452;-64
2023/10/18 13:56:54;;;;;;;2.60;1.93;;;15.40;96.10;;;;;;4960707;28;20945;-64
2023/10/18 14:02:43;;;;;;;2.07;1.87;;;15.40;96.10;;;;;;4964488;28;20189;-64
2023/10/18 14:05:31;;;;;;;2.70;2.40;;;15.40;96.60;;;;;;4965849;28;20479;-64
2023/10/18 14:08:12;;;;;;;3.30;3.00;;;15.40;96.20;;;;;;4966253;28;20432;-64
2023/10/18 14:10:41;;;;;;;15.30;13.73;;;15.40;96.60;;;;;;4968530;28;21276;-64
2023/10/18 14:13:10;;;;;;;12.93;11.63;;;15.50;96.30;;;;;;4964920;28;20432;-64
2023/10/18 14:16:04;;;;;;;2.87;2.57;;;15.60;96.80;;;;;;4964025;28;20455;-64
2023/10/18 14:18:51;;;;;;;2.77;2.37;;;15.50;96.10;;;;;;4964752;28;20443;-64
2023/10/18 14:21:59;;;;;;;5.20;2.30;;;15.60;95.60;;;;;;4967303;28;21076;-64
2023/10/18 14:24:49;;;;;;;2.10;1.90;;;15.60;95.40;;;;;;4967037;28;20431;-64
2023/10/18 14:27:18;;;;;;;6.40;1.90;;;15.60;94.40;;;;;;4966397;28;20447;-64
2023/10/18 14:30:12;;;;;;;1.93;1.63;;;15.50;94.00;;;;;;4976668;28;20439;-65
2023/10/18 14:32:44;;;;;;;2.13;1.90;;;15.50;94.80;;;;;;4968546;28;20447;-64
2023/10/18 14:35:16;;;;;;;2.90;2.17;;;15.50;94.40;;;;;;4964434;28;20455;-64
2023/10/18 14:37:59;;;;;;;2.70;2.20;;;15.50;93.70;;;;;;4965203;28;20507;-65
2023/10/18 14:40:51;;;;;;;2.13;1.90;;;15.40;94.30;;;;;;4966037;28;20577;-64
2023/10/18 14:43:51;;;;;;;4.90;3.13;;;15.40;94.30;;;;;;4965315;28;20470;-64
2023/10/18 14:46:12;;;;;;;2.63;1.70;;;15.40;93.70;;;;;;4971298;28;20803;-64
2023/10/18 14:52:00;;;;;;;2.23;1.83;;;15.20;94.20;;;;;;4968860;28;20456;-64
2023/10/18 14:54:26;;;;;;;2.73;1.90;;;15.20;94.60;;;;;;4971774;28;20428;-64
2023/10/18 14:56:52;;;;;;;2.70;2.20;;;15.10;95.00;;;;;;4972487;28;20310;-64
2023/10/18 14:59:17;;;;;;;2.60;2.20;;;15.10;94.50;;;;;;4973047;28;20219;-64
2023/10/18 15:01:43;;;;;;;2.20;2.00;;;15.10;94.70;;;;;;4963239;28;20965;-64
2023/10/18 15:04:09;;;;;;;2.83;1.87;;;15.00;94.80;;;;;;4971198;28;20176;-64
2023/10/18 15:06:37;;;;;;;6.20;2.27;;;15.00;94.50;;;;;;4966108;28;20184;-64
2023/10/18 15:09:03;;;;;;;4.03;2.03;;;14.90;95.10;;;;;;4967531;28;20204;-64
2023/10/18 15:11:30;;;;;;;5.63;2.00;;;14.90;95.50;;;;;;4973133;28;20944;-64
2023/10/18 15:13:56;;;;;;;3.80;1.97;;;14.80;95.40;;;;;;4975015;28;20442;-64
2023/10/18 15:16:21;;;;;;;1.90;1.80;;;14.80;95.50;;;;;;4977776;28;20419;-64
2023/10/18 15:18:47;;;;;;;1.73;1.57;;;14.70;96.00;;;;;;4979993;28;21046;-64
2023/10/18 15:21:16;;;;;;;2.73;2.30;;;14.70;96.10;;;;;;4975558;28;20188;-64
2023/10/18 15:23:45;;;;;;;2.10;1.90;;;14.70;96.40;;;;;;4990813;28;20187;-64
2023/10/18 15:26:16;;;;;;;2.57;1.80;;;14.70;96.60;;;;;;4975209;28;20522;-64
2023/10/18 15:28:42;;;;;;;2.33;1.90;;;14.70;96.80;;;;;;4971465;28;20432;-64
2023/10/18 15:31:09;;;;;;;2.10;1.83;;;14.60;97.20;;;;;;4978182;28;20447;-65
2023/10/18 15:33:37;;;;;;;2.20;1.80;;;14.60;97.60;;;;;;4975398;28;20900;-64
2023/10/18 15:36:18;;;;;;;3.20;2.20;;;14.60;98.20;;;;;;4967585;28;20506;-64
2023/10/18 15:38:45;;;;;;;3.17;2.00;;;14.50;99.00;;;;;;4973921;28;21103;-64